Time;durP1;ratioP1;P1;durP2;ratioP2;P2;SDS_P1;SDS_P2;PMS_P1;PMS_P2;Temp;Humidity;BMP_temperature;BMP_pressure;BME280_temperature;BME280_humidity;BME280_pressure;Samples;Min_cycle;Max_cycle;Signal;HPM_P1;HPM_P2
2022/07/06 00:00:36;;;;;;;5.75;0.95;;;23.90;44.70;;;;;;4975282;28;20027;-71
2022/07/06 00:03:02;;;;;;;3.00;1.02;;;23.90;44.60;;;;;;4975137;28;20027;-72
2022/07/06 00:05:28;;;;;;;4.32;1.02;;;23.90;44.70;;;;;;4975255;28;20031;-72
2022/07/06 00:07:54;;;;;;;2.85;1.10;;;23.80;44.70;;;;;;4974832;28;20391;-72
2022/07/06 00:10:20;;;;;;;2.78;0.98;;;23.80;44.70;;;;;;4974103;28;20042;-72
2022/07/06 00:12:45;;;;;;;3.05;0.90;;;23.80;44.70;;;;;;4974781;28;20034;-72
2022/07/06 00:15:11;;;;;;;2.08;0.80;;;23.80;44.80;;;;;;4975053;28;20070;-72
2022/07/06 00:17:37;;;;;;;2.47;0.75;;;23.80;44.80;;;;;;4974558;28;20026;-72
2022/07/06 00:20:03;;;;;;;2.35;0.90;;;23.70;44.80;;;;;;4974767;28;20057;-72
2022/07/06 00:22:29;;;;;;;2.20;0.90;;;23.70;44.80;;;;;;4973375;28;20054;-71
2022/07/06 00:24:54;;;;;;;5.38;1.05;;;23.70;44.80;;;;;;4974604;28;20026;-72
2022/07/06 00:29:57;;;;;;;3.42;0.80;;;23.70;45.00;;;;;;4915446;29;20138;-74
2022/07/06 00:32:25;;;;;;;2.70;0.90;;;23.70;45.20;;;;;;4934809;29;20103;-74
2022/07/06 00:34:50;;;;;;;3.92;1.00;;;23.70;45.10;;;;;;4919385;29;20036;-74
2022/07/06 00:37:16;;;;;;;2.80;0.80;;;23.70;45.10;;;;;;4934732;29;20042;-74
2022/07/06 00:39:42;;;;;;;4.00;1.15;;;23.70;45.20;;;;;;4903152;29;20036;-74
2022/07/06 00:42:08;;;;;;;3.40;0.88;;;23.70;45.20;;;;;;4934749;29;20039;-74
2022/07/06 00:44:34;;;;;;;5.32;1.17;;;23.60;45.20;;;;;;4935021;29;20028;-74
2022/07/06 00:47:00;;;;;;;2.67;0.90;;;23.60;45.20;;;;;;4934460;29;20028;-74
2022/07/06 00:52:11;;;;;;;4.80;1.00;;;23.60;46.00;;;;;;4934794;29;20034;-74
2022/07/06 00:54:41;;;;;;;6.32;1.08;;;23.60;45.90;;;;;;4918774;29;20039;-74
2022/07/06 00:57:07;;;;;;;4.70;1.10;;;23.60;45.40;;;;;;4918600;29;20039;-74
2022/07/06 00:59:33;;;;;;;3.38;1.02;;;23.60;45.60;;;;;;4918578;29;20046;-74
2022/07/06 01:01:58;;;;;;;5.68;1.20;;;23.60;45.60;;;;;;4934549;29;20035;-74
2022/07/06 01:04:24;;;;;;;2.88;1.13;;;23.60;45.70;;;;;;4934484;29;20503;-74
2022/07/06 01:06:50;;;;;;;6.15;1.65;;;23.50;45.80;;;;;;4934332;29;20514;-75
2022/07/06 01:09:16;;;;;;;7.82;3.83;;;23.50;45.90;;;;;;4934122;29;20066;-75
2022/07/06 01:11:43;;;;;;;13.43;4.25;;;23.60;45.90;;;;;;4918704;29;20449;-75
2022/07/06 01:14:11;;;;;;;13.15;3.90;;;23.60;46.00;;;;;;4918681;29;20036;-75
2022/07/06 01:16:37;;;;;;;9.55;3.05;;;23.70;46.10;;;;;;4933977;29;20166;-75
2022/07/06 01:19:02;;;;;;;11.63;3.10;;;23.70;46.10;;;;;;4918353;29;20035;-75
2022/07/06 01:21:28;;;;;;;9.15;2.50;;;23.70;46.20;;;;;;4934168;29;20028;-74
2022/07/06 01:23:54;;;;;;;7.10;2.20;;;23.80;46.00;;;;;;4934165;29;20023;-75
2022/07/06 01:26:21;;;;;;;4.93;1.83;;;23.80;46.20;;;;;;4918102;29;20034;-75
2022/07/06 01:28:51;;;;;;;3.92;1.92;;;23.80;46.20;;;;;;4933957;29;20067;-75
2022/07/06 01:31:23;;;;;;;3.95;1.58;;;23.80;46.20;;;;;;4918420;29;20051;-75
2022/07/06 01:33:52;;;;;;;5.55;2.13;;;23.80;46.20;;;;;;4934067;29;20386;-75
2022/07/06 01:36:18;;;;;;;7.82;1.85;;;23.90;46.10;;;;;;4934844;29;20039;-75
2022/07/06 01:38:49;;;;;;;4.10;2.08;;;23.90;46.40;;;;;;4933821;29;20039;-75
2022/07/06 01:41:15;;;;;;;5.05;1.92;;;23.90;46.20;;;;;;4933850;29;20036;-75
2022/07/06 01:43:41;;;;;;;7.70;2.45;;;23.90;46.30;;;;;;4933798;29;20043;-74
2022/07/06 01:46:08;;;;;;;9.98;2.40;;;23.90;46.40;;;;;;4933429;29;20159;-75
2022/07/06 01:48:34;;;;;;;8.27;1.88;;;23.90;46.40;;;;;;4933754;29;20079;-75
2022/07/06 01:51:00;;;;;;;5.35;1.75;;;23.90;46.30;;;;;;4933620;29;20034;-76
2022/07/06 01:53:26;;;;;;;7.22;1.88;;;23.90;46.40;;;;;;4917770;29;20039;-76
2022/07/06 01:55:51;;;;;;;11.07;2.75;;;23.90;46.50;;;;;;4934505;29;20084;-76
2022/07/06 01:58:18;;;;;;;4.20;1.52;;;23.90;46.60;;;;;;4933090;29;20039;-75
2022/07/06 02:00:43;;;;;;;8.52;1.75;;;23.90;46.70;;;;;;4933518;29;20031;-75
2022/07/06 02:03:09;;;;;;;5.97;1.88;;;23.90;46.70;;;;;;4933604;29;20597;-75
2022/07/06 02:05:37;;;;;;;4.03;1.80;;;23.90;46.60;;;;;;4933280;29;20038;-75
2022/07/06 02:08:04;;;;;;;6.03;1.60;;;23.90;46.80;;;;;;4917603;29;20039;-75
2022/07/06 02:10:31;;;;;;;9.10;1.70;;;23.90;46.80;;;;;;4934769;29;20059;-75
2022/07/06 02:12:57;;;;;;;7.20;1.70;;;23.90;46.70;;;;;;4933513;29;20489;-76
2022/07/06 02:15:23;;;;;;;6.55;1.50;;;23.90;46.80;;;;;;4933443;29;20555;-76
2022/07/06 02:17:49;;;;;;;3.75;1.60;;;23.90;46.90;;;;;;4933275;29;20059;-75
2022/07/06 02:20:16;;;;;;;4.05;1.60;;;23.90;47.00;;;;;;4933505;29;20139;-76
2022/07/06 02:22:43;;;;;;;5.57;1.73;;;23.90;46.80;;;;;;4933593;29;20028;-76
2022/07/06 02:25:09;;;;;;;4.88;1.67;;;23.90;46.80;;;;;;4934499;29;20034;-76
2022/07/06 02:27:35;;;;;;;5.22;1.60;;;23.90;46.90;;;;;;4933037;29;20212;-76
2022/07/06 02:30:05;;;;;;;4.63;1.58;;;23.90;46.90;;;;;;4933554;29;20504;-75
2022/07/06 02:32:32;;;;;;;7.50;1.40;;;23.90;46.80;;;;;;4917518;29;20035;-75
2022/07/06 02:34:59;;;;;;;5.13;1.38;;;23.90;47.10;;;;;;4933352;29;20040;-76
2022/07/06 02:37:25;;;;;;;3.33;1.48;;;23.90;47.10;;;;;;4932839;29;20031;-75
2022/07/06 02:39:51;;;;;;;5.35;1.73;;;23.90;47.00;;;;;;4933252;29;20122;-75
2022/07/06 02:42:17;;;;;;;3.50;1.40;;;23.90;47.20;;;;;;4933244;29;20038;-75
2022/07/06 02:44:43;;;;;;;6.13;1.77;;;23.90;47.30;;;;;;4933226;29;20024;-75
2022/07/06 02:47:09;;;;;;;7.05;1.92;;;23.90;47.40;;;;;;4901228;29;20469;-76
2022/07/06 02:49:35;;;;;;;5.47;1.60;;;23.90;47.50;;;;;;4917527;29;20036;-75
2022/07/06 02:52:01;;;;;;;3.90;1.08;;;23.90;47.60;;;;;;4917367;29;20035;-75
2022/07/06 02:54:30;;;;;;;3.72;1.35;;;23.90;47.60;;;;;;4933167;29;20027;-75
2022/07/06 02:56:57;;;;;;;6.25;1.35;;;23.90;47.70;;;;;;4917144;29;20067;-74
2022/07/06 02:59:22;;;;;;;2.42;1.20;;;23.90;47.80;;;;;;4932953;29;20039;-74
2022/07/06 03:01:49;;;;;;;7.43;1.70;;;23.90;47.90;;;;;;4917128;29;20489;-74
2022/07/06 03:04:16;;;;;;;3.90;1.25;;;23.90;48.10;;;;;;4933044;29;20067;-73
2022/07/06 03:06:43;;;;;;;3.28;1.17;;;23.90;48.00;;;;;;4932611;29;20477;-74
2022/07/06 03:09:09;;;;;;;4.78;1.35;;;23.90;48.20;;;;;;4917271;29;20035;-73
2022/07/06 03:11:36;;;;;;;4.20;1.30;;;23.90;48.20;;;;;;4936352;29;20043;-74
2022/07/06 03:14:04;;;;;;;2.78;1.33;;;23.90;48.20;;;;;;4920873;29;20042;-75
2022/07/06 03:16:30;;;;;;;3.38;1.30;;;23.90;48.30;;;;;;4904835;29;20040;-74
2022/07/06 03:18:57;;;;;;;4.10;1.20;;;23.90;48.30;;;;;;4920444;29;20039;-74
2022/07/06 03:21:26;;;;;;;2.40;1.20;;;23.90;48.30;;;;;;4920586;29;20039;-74
2022/07/06 03:23:52;;;;;;;4.18;1.17;;;23.90;48.40;;;;;;4920510;29;20030;-73
2022/07/06 03:26:19;;;;;;;2.92;0.95;;;23.90;48.50;;;;;;4920310;29;20070;-73
2022/07/06 03:28:47;;;;;;;2.85;1.30;;;23.90;48.50;;;;;;4920362;29;20035;-74
2022/07/06 03:31:13;;;;;;;2.72;1.00;;;23.90;48.50;;;;;;4920539;29;20126;-74
2022/07/06 03:33:39;;;;;;;2.92;1.38;;;23.90;48.60;;;;;;4936371;29;20110;-74
2022/07/06 03:36:07;;;;;;;2.17;1.20;;;23.90;48.70;;;;;;4920099;29;20067;-74
2022/07/06 03:38:35;;;;;;;3.90;1.17;;;23.90;48.70;;;;;;4935921;29;20547;-75
2022/07/06 03:41:01;;;;;;;5.50;1.15;;;23.90;48.70;;;;;;4920235;29;20118;-75
2022/07/06 03:43:28;;;;;;;1.88;1.13;;;23.90;48.70;;;;;;4935976;29;20038;-75
2022/07/06 03:45:54;;;;;;;6.40;1.27;;;23.90;48.80;;;;;;4935685;29;20027;-75
2022/07/06 03:48:20;;;;;;;4.57;1.17;;;23.90;48.80;;;;;;4920161;29;20059;-75
2022/07/06 03:50:47;;;;;;;4.10;1.17;;;23.90;48.80;;;;;;4920142;29;20042;-75
2022/07/06 03:53:13;;;;;;;3.65;1.00;;;23.90;49.50;;;;;;4935945;29;20408;-75
2022/07/06 03:55:39;;;;;;;3.05;1.20;;;23.90;48.90;;;;;;4935638;29;20370;-76
2022/07/06 03:58:07;;;;;;;3.75;1.20;;;23.90;48.90;;;;;;4935655;29;20036;-75
2022/07/06 04:00:36;;;;;;;4.53;1.40;;;23.90;48.90;;;;;;4935650;29;20114;-75
2022/07/06 04:03:06;;;;;;;5.97;1.58;;;23.90;49.00;;;;;;4935699;29;20392;-75
2022/07/06 04:05:38;;;;;;;6.25;1.50;;;23.90;48.90;;;;;;4919508;29;20028;-75
2022/07/06 04:08:04;;;;;;;4.07;1.52;;;23.90;49.10;;;;;;4935596;29;20028;-75
2022/07/06 04:10:36;;;;;;;4.50;1.30;;;23.90;49.10;;;;;;4935554;29;20046;-75
2022/07/06 04:13:03;;;;;;;5.07;1.13;;;23.90;49.00;;;;;;4935740;29;20685;-75
2022/07/06 04:15:32;;;;;;;2.65;1.20;;;23.90;49.10;;;;;;4935477;29;20046;-75
2022/07/06 04:17:59;;;;;;;3.53;1.40;;;23.90;49.10;;;;;;4935483;29;20028;-75
2022/07/06 04:20:32;;;;;;;2.67;1.17;;;23.90;49.70;;;;;;4919081;29;20039;-75
2022/07/06 04:22:58;;;;;;;3.28;1.10;;;23.90;49.20;;;;;;4935238;29;20042;-75
2022/07/06 04:25:25;;;;;;;4.30;1.30;;;23.90;49.20;;;;;;4935089;29;20038;-75
2022/07/06 04:27:51;;;;;;;4.03;1.20;;;23.90;49.10;;;;;;4918762;29;20039;-75
2022/07/06 04:30:18;;;;;;;5.53;1.48;;;23.90;49.20;;;;;;4935200;29;20040;-74
2022/07/06 04:32:44;;;;;;;4.50;1.25;;;23.90;49.20;;;;;;4935381;29;20039;-75
2022/07/06 04:35:11;;;;;;;5.85;1.42;;;23.90;49.20;;;;;;4919442;29;20036;-75
2022/07/06 04:37:38;;;;;;;1.85;1.10;;;23.90;49.20;;;;;;4903241;29;20043;-76
2022/07/06 04:40:05;;;;;;;3.42;1.27;;;23.90;49.30;;;;;;4934949;29;20094;-76
2022/07/06 04:42:31;;;;;;;4.90;1.02;;;23.90;49.30;;;;;;4919426;29;20119;-76
2022/07/06 04:44:57;;;;;;;3.65;1.20;;;23.90;49.30;;;;;;4919338;29;20463;-76
2022/07/06 04:47:23;;;;;;;5.47;1.50;;;23.90;49.30;;;;;;4918853;29;20031;-75
2022/07/06 04:49:49;;;;;;;4.18;1.20;;;23.90;49.30;;;;;;4934711;29;20094;-76
2022/07/06 04:52:15;;;;;;;4.18;1.10;;;23.90;49.30;;;;;;4934779;29;20035;-75
2022/07/06 04:54:41;;;;;;;3.70;1.30;;;23.90;49.30;;;;;;4919282;29;20608;-76
2022/07/06 04:57:07;;;;;;;3.38;1.23;;;23.90;49.20;;;;;;4936747;29;20062;-74
2022/07/06 04:59:33;;;;;;;5.60;1.60;;;23.90;49.30;;;;;;4936889;29;20027;-75
2022/07/06 05:02:00;;;;;;;4.32;1.70;;;23.90;49.30;;;;;;4936847;29;20027;-75
2022/07/06 05:04:27;;;;;;;3.38;1.13;;;23.90;49.20;;;;;;4942686;29;20034;-75
2022/07/06 05:06:55;;;;;;;3.17;1.30;;;23.90;49.20;;;;;;4914937;29;20817;-75
2022/07/06 05:09:21;;;;;;;4.22;1.20;;;23.90;49.30;;;;;;4929221;29;20039;-74
2022/07/06 05:11:48;;;;;;;7.45;1.38;;;24.00;49.30;;;;;;4935134;29;20031;-75
2022/07/06 05:14:14;;;;;;;3.40;1.27;;;23.90;49.20;;;;;;4934521;29;20095;-75
2022/07/06 05:16:40;;;;;;;5.47;1.25;;;23.90;49.30;;;;;;4933911;29;20040;-74
2022/07/06 05:19:07;;;;;;;4.18;1.20;;;23.90;49.30;;;;;;4934032;29;20032;-74
2022/07/06 05:21:33;;;;;;;6.28;1.27;;;23.90;49.20;;;;;;4934150;29;20035;-75
2022/07/06 05:24:00;;;;;;;2.70;1.45;;;23.90;49.30;;;;;;4918555;29;20036;-76
2022/07/06 05:26:26;;;;;;;4.55;1.40;;;23.90;49.30;;;;;;4933813;29;20034;-75
2022/07/06 05:28:51;;;;;;;3.45;1.42;;;23.90;49.30;;;;;;4935137;29;20054;-75
2022/07/06 05:31:21;;;;;;;3.67;1.40;;;23.90;49.30;;;;;;4934051;29;20032;-76
2022/07/06 05:33:47;;;;;;;3.72;1.45;;;23.90;49.40;;;;;;4933347;29;20027;-76
2022/07/06 05:36:12;;;;;;;3.17;1.50;;;23.90;49.30;;;;;;4918141;29;20032;-75
2022/07/06 05:38:39;;;;;;;6.07;1.58;;;23.90;49.30;;;;;;4902412;29;20036;-76
2022/07/06 05:41:06;;;;;;;3.38;1.58;;;23.90;49.40;;;;;;4933848;29;20099;-75
2022/07/06 05:43:36;;;;;;;6.03;1.50;;;23.90;49.30;;;;;;4933869;29;20028;-76
2022/07/06 05:46:02;;;;;;;5.43;1.77;;;23.90;49.30;;;;;;4902013;29;20028;-75
2022/07/06 05:51:15;;;;;;;5.38;1.40;;;23.90;49.40;;;;;;4934937;29;20397;-76
2022/07/06 05:53:42;;;;;;;3.30;1.35;;;23.90;49.20;;;;;;4933746;29;20521;-75
2022/07/06 05:56:08;;;;;;;4.70;1.60;;;23.90;49.20;;;;;;4934609;29;20066;-75
2022/07/06 05:58:36;;;;;;;7.15;1.95;;;23.90;49.10;;;;;;4917478;29;20069;-75
2022/07/06 06:01:03;;;;;;;4.15;1.42;;;23.90;49.20;;;;;;4917386;29;20044;-76
2022/07/06 06:03:31;;;;;;;7.78;1.77;;;23.90;49.20;;;;;;4933444;29;20167;-76
2022/07/06 06:05:57;;;;;;;6.68;1.50;;;23.90;49.20;;;;;;4934675;29;20543;-76
2022/07/06 06:08:24;;;;;;;4.28;1.58;;;23.90;49.20;;;;;;4933568;29;20032;-76
2022/07/06 06:10:52;;;;;;;4.70;1.70;;;23.90;49.40;;;;;;4933561;29;20038;-75
2022/07/06 06:13:20;;;;;;;5.97;1.38;;;23.90;49.30;;;;;;4933361;29;20436;-75
2022/07/06 06:15:46;;;;;;;4.88;1.65;;;23.90;49.20;;;;;;4933280;29;20031;-75
2022/07/06 06:18:17;;;;;;;5.57;1.70;;;23.90;49.30;;;;;;4934619;29;20127;-76
2022/07/06 06:20:43;;;;;;;3.22;1.38;;;23.90;49.20;;;;;;4934234;29;20031;-74
2022/07/06 06:23:08;;;;;;;3.17;1.10;;;23.90;49.30;;;;;;4934648;29;20448;-76
2022/07/06 06:25:36;;;;;;;2.63;1.27;;;23.90;49.30;;;;;;4934293;29;20024;-76
2022/07/06 06:28:10;;;;;;;5.35;1.65;;;23.90;49.20;;;;;;4934325;29;20123;-75
2022/07/06 06:30:37;;;;;;;2.45;1.17;;;23.90;49.40;;;;;;4934455;29;20119;-74
2022/07/06 06:33:09;;;;;;;7.03;2.38;;;23.90;49.50;;;;;;4934492;29;20059;-75
2022/07/06 06:35:35;;;;;;;5.15;1.40;;;23.90;49.30;;;;;;4917336;29;20051;-75
2022/07/06 06:38:01;;;;;;;4.32;1.42;;;23.90;49.40;;;;;;4934482;29;20027;-75
2022/07/06 06:40:27;;;;;;;4.78;1.45;;;24.00;49.40;;;;;;4934213;29;20556;-75
2022/07/06 06:42:53;;;;;;;4.15;1.40;;;24.00;49.40;;;;;;4917562;29;20392;-75
2022/07/06 06:45:19;;;;;;;2.90;1.40;;;24.00;49.30;;;;;;4937318;29;20019;-75
2022/07/06 06:47:44;;;;;;;6.65;1.90;;;24.00;49.50;;;;;;4936739;29;20038;-75
2022/07/06 06:50:10;;;;;;;5.90;1.60;;;24.00;49.40;;;;;;4938436;29;20115;-75
2022/07/06 06:52:36;;;;;;;4.45;1.30;;;24.00;49.40;;;;;;4938130;29;20024;-75
2022/07/06 06:55:02;;;;;;;4.25;1.25;;;24.00;49.40;;;;;;4938230;29;20481;-76
2022/07/06 06:57:28;;;;;;;6.53;1.77;;;24.00;49.40;;;;;;4937705;29;20031;-75
2022/07/06 06:59:54;;;;;;;5.47;1.80;;;24.00;49.40;;;;;;4936731;29;20028;-76
2022/07/06 07:02:20;;;;;;;4.78;1.40;;;24.00;49.50;;;;;;4937954;29;20051;-75
2022/07/06 07:04:46;;;;;;;4.47;1.50;;;24.00;49.40;;;;;;4937970;29;20119;-76
2022/07/06 07:07:12;;;;;;;7.35;1.45;;;24.00;49.50;;;;;;4920772;29;20109;-74
2022/07/06 07:09:37;;;;;;;6.32;1.80;;;24.00;49.50;;;;;;4920848;29;20600;-75
2022/07/06 07:12:04;;;;;;;6.18;1.70;;;24.00;49.70;;;;;;4937728;29;20032;-74
2022/07/06 07:14:29;;;;;;;4.88;1.40;;;24.00;49.60;;;;;;4937762;29;20122;-74
2022/07/06 07:16:55;;;;;;;7.40;1.70;;;24.00;50.10;;;;;;4937460;29;20067;-72
2022/07/06 07:19:21;;;;;;;4.07;1.65;;;24.00;49.40;;;;;;4937481;29;20032;-74
2022/07/06 07:21:47;;;;;;;9.27;1.80;;;24.00;49.70;;;;;;4937680;29;20055;-74
2022/07/06 07:24:12;;;;;;;9.55;1.65;;;24.00;50.00;;;;;;4936330;29;20428;-74
2022/07/06 07:26:38;;;;;;;5.55;1.52;;;23.90;49.40;;;;;;4936069;29;20358;-74
2022/07/06 07:29:04;;;;;;;7.78;1.80;;;24.00;50.50;;;;;;4934297;29;20067;-74
2022/07/06 07:31:30;;;;;;;9.63;1.55;;;24.00;50.60;;;;;;4935993;29;20032;-74
2022/07/06 07:33:56;;;;;;;8.25;1.80;;;24.00;49.30;;;;;;4937234;29;20035;-74
2022/07/06 07:36:23;;;;;;;11.02;5.88;;;24.00;49.20;;;;;;4936923;29;20027;-74
2022/07/06 07:38:50;;;;;;;12.30;4.32;;;24.00;49.20;;;;;;4936793;29;20032;-74
2022/07/06 07:41:16;;;;;;;8.98;4.65;;;23.90;48.70;;;;;;4936082;29;20111;-74
2022/07/06 07:43:43;;;;;;;12.85;3.15;;;23.90;47.60;;;;;;4936918;29;20032;-74
2022/07/06 07:46:09;;;;;;;7.65;1.50;;;23.90;48.10;;;;;;4935691;29;20180;-75
2022/07/06 07:48:35;;;;;;;7.57;1.98;;;23.20;44.40;;;;;;4937098;29;20112;-74
2022/07/06 07:51:01;;;;;;;5.88;1.20;;;22.80;45.90;;;;;;4935862;29;20094;-73
2022/07/06 07:53:27;;;;;;;4.28;1.15;;;22.70;46.00;;;;;;4920238;29;20036;-74
2022/07/06 07:55:53;;;;;;;7.65;1.55;;;22.80;46.20;;;;;;4936200;29;20163;-74
2022/07/06 07:58:19;;;;;;;9.13;1.30;;;22.90;46.80;;;;;;4936936;29;20028;-73
2022/07/06 08:00:45;;;;;;;6.85;2.00;;;23.10;46.30;;;;;;4919786;29;20039;-75
2022/07/06 08:03:12;;;;;;;8.18;2.15;;;23.20;46.20;;;;;;4920195;29;20512;-77
2022/07/06 08:05:38;;;;;;;5.20;2.00;;;23.30;46.20;;;;;;4936599;29;20032;-77
2022/07/06 08:08:04;;;;;;;4.70;1.63;;;23.50;46.20;;;;;;4936710;29;20458;-77
2022/07/06 08:10:30;;;;;;;7.47;2.00;;;23.60;46.00;;;;;;4936764;29;20032;-76
2022/07/06 08:12:56;;;;;;;5.03;1.50;;;23.70;46.30;;;;;;4936965;29;20036;-77
2022/07/06 08:15:22;;;;;;;6.70;1.85;;;23.70;46.30;;;;;;4936651;29;20042;-77
2022/07/06 08:17:47;;;;;;;5.43;1.50;;;23.80;46.40;;;;;;4919481;29;20392;-77
2022/07/06 08:20:14;;;;;;;5.30;1.55;;;23.80;46.30;;;;;;4936546;29;20170;-77
2022/07/06 08:22:42;;;;;;;3.30;1.13;;;23.90;46.30;;;;;;4936397;29;20063;-77
2022/07/06 08:25:08;;;;;;;6.15;1.88;;;23.90;46.40;;;;;;4936543;29;20031;-77
2022/07/06 08:27:35;;;;;;;6.38;1.30;;;23.90;46.40;;;;;;4936140;29;20035;-77
2022/07/06 08:30:02;;;;;;;5.07;1.60;;;24.00;46.60;;;;;;4919362;29;20047;-77
2022/07/06 08:32:28;;;;;;;6.53;1.45;;;24.00;46.70;;;;;;4935212;29;20110;-76
2022/07/06 08:34:54;;;;;;;3.83;1.48;;;24.00;46.80;;;;;;4935223;29;20510;-75
2022/07/06 08:37:20;;;;;;;3.92;1.38;;;24.00;47.40;;;;;;4935827;29;20048;-75
2022/07/06 08:39:45;;;;;;;3.35;1.45;;;24.00;46.90;;;;;;4936282;29;20040;-76
2022/07/06 08:42:14;;;;;;;4.45;1.27;;;24.00;47.00;;;;;;4936130;29;20030;-76
2022/07/06 08:44:41;;;;;;;4.63;1.42;;;24.00;47.10;;;;;;4919120;29;20027;-76
2022/07/06 08:47:07;;;;;;;4.53;1.52;;;24.00;47.20;;;;;;4935817;29;20023;-75
2022/07/06 08:49:37;;;;;;;;;;;24.00;47.30;;;;;;4919240;29;20071;-75
2022/07/06 08:52:04;;;;;;;5.20;1.33;;;24.00;47.50;;;;;;4935968;29;19953;-76
2022/07/06 08:54:30;;;;;;;5.80;1.83;;;24.00;48.20;;;;;;4919135;29;20063;-76
2022/07/06 08:56:56;;;;;;;7.10;1.73;;;24.00;47.60;;;;;;4935779;29;20551;-75
2022/07/06 08:59:21;;;;;;;6.47;1.60;;;24.00;47.70;;;;;;4935753;29;20508;-75
2022/07/06 09:01:48;;;;;;;8.40;1.75;;;23.90;47.80;;;;;;4918713;29;20400;-76
2022/07/06 09:04:17;;;;;;;4.35;1.40;;;23.90;47.80;;;;;;4935732;29;20034;-75
2022/07/06 09:06:45;;;;;;;4.15;1.30;;;23.90;47.90;;;;;;4918584;29;20059;-75
2022/07/06 09:09:20;;;;;;;7.70;1.60;;;23.90;48.00;;;;;;4918775;29;20056;-75
2022/07/06 09:11:46;;;;;;;4.20;1.25;;;23.90;48.00;;;;;;4935546;29;20032;-75
2022/07/06 09:14:12;;;;;;;4.05;1.35;;;23.90;48.00;;;;;;4918711;29;20095;-74
2022/07/06 09:16:38;;;;;;;6.18;1.70;;;24.00;48.10;;;;;;4935355;29;20066;-74
2022/07/06 09:19:06;;;;;;;7.68;1.70;;;24.00;48.20;;;;;;4935365;29;20035;-74
2022/07/06 09:21:32;;;;;;;2.70;1.23;;;24.00;48.30;;;;;;4934245;29;20046;-74
2022/07/06 09:24:02;;;;;;;6.32;1.45;;;24.00;48.30;;;;;;4918660;29;20460;-75
2022/07/06 09:26:28;;;;;;;3.97;1.20;;;24.00;48.30;;;;;;4918446;29;20525;-75
2022/07/06 09:28:56;;;;;;;4.13;1.20;;;24.00;48.30;;;;;;4935211;29;20122;-75
2022/07/06 09:31:22;;;;;;;3.75;1.25;;;24.00;48.40;;;;;;4935331;29;20091;-76
2022/07/06 09:34:09;;;;;;;4.90;1.38;;;24.00;48.40;;;;;;4918520;29;20031;-75
2022/07/06 09:36:47;;;;;;;4.88;1.25;;;23.90;48.40;;;;;;4934882;29;20477;-74
2022/07/06 09:39:23;;;;;;;4.78;1.25;;;24.00;48.50;;;;;;4934938;29;20043;-75
2022/07/06 09:41:52;;;;;;;4.25;1.30;;;24.00;48.60;;;;;;4933896;29;20059;-75
2022/07/06 09:44:25;;;;;;;2.10;1.17;;;24.00;48.60;;;;;;4935104;29;20476;-74
2022/07/06 09:46:51;;;;;;;3.67;1.20;;;23.90;48.60;;;;;;4934750;29;20027;-75
2022/07/06 09:49:22;;;;;;;3.22;1.35;;;24.00;48.70;;;;;;4934891;29;20034;-74
2022/07/06 09:51:55;;;;;;;3.65;1.38;;;24.00;48.70;;;;;;4935031;29;20522;-74
2022/07/06 09:54:21;;;;;;;3.38;1.20;;;23.90;48.70;;;;;;4934927;29;20180;-74
2022/07/06 09:56:50;;;;;;;2.10;1.20;;;23.90;48.70;;;;;;4918087;29;20131;-74
2022/07/06 09:59:21;;;;;;;4.65;1.80;;;24.00;48.70;;;;;;4934865;29;20041;-74
2022/07/06 10:01:49;;;;;;;4.85;1.50;;;24.00;48.80;;;;;;4934851;29;20106;-74
2022/07/06 10:04:18;;;;;;;4.63;1.30;;;24.00;48.70;;;;;;4934793;29;20055;-74
2022/07/06 10:06:44;;;;;;;3.20;1.35;;;24.00;48.80;;;;;;4934343;29;20441;-74
2022/07/06 10:09:13;;;;;;;2.80;1.10;;;24.00;49.30;;;;;;4917781;29;20134;-74
2022/07/06 10:11:42;;;;;;;4.85;1.20;;;24.00;48.80;;;;;;4934821;29;20090;-74
2022/07/06 10:14:08;;;;;;;3.90;1.30;;;24.00;48.80;;;;;;4934695;29;20079;-75
2022/07/06 10:16:37;;;;;;;8.07;1.40;;;24.00;48.80;;;;;;4934227;29;20032;-74
2022/07/06 10:19:06;;;;;;;5.80;1.25;;;24.00;48.90;;;;;;4932952;29;20034;-75
2022/07/06 10:21:35;;;;;;;3.90;1.30;;;24.00;48.90;;;;;;4934681;29;20035;-74
2022/07/06 10:24:01;;;;;;;2.85;1.38;;;24.00;48.90;;;;;;4933327;29;20051;-71
2022/07/06 10:26:27;;;;;;;5.10;1.30;;;24.00;48.90;;;;;;4917299;29;20500;-73
2022/07/06 10:28:53;;;;;;;21.13;3.63;;;24.10;49.20;;;;;;4934322;29;20036;-74
2022/07/06 10:31:20;;;;;;;57.65;14.20;;;24.10;49.20;;;;;;4934488;29;20031;-73
2022/07/06 10:33:47;;;;;;;140.57;36.75;;;24.00;48.80;;;;;;4934369;29;20103;-73
2022/07/06 10:36:14;;;;;;;96.25;28.50;;;24.00;48.70;;;;;;4931759;29;20059;-73
2022/07/06 10:38:40;;;;;;;109.18;36.03;;;24.00;48.50;;;;;;4934310;29;20024;-73
2022/07/06 10:41:09;;;;;;;216.70;73.50;;;24.00;48.50;;;;;;4934276;29;20035;-74
2022/07/06 10:43:42;;;;;;;102.47;31.65;;;24.00;48.30;;;;;;4933119;29;20374;-73
2022/07/06 10:46:11;;;;;;;136.63;51.47;;;24.00;48.10;;;;;;4933893;29;20118;-73
2022/07/06 10:48:39;;;;;;;73.13;25.05;;;24.00;47.80;;;;;;4934064;29;20032;-73
2022/07/06 10:51:05;;;;;;;67.57;24.85;;;24.00;46.50;;;;;;4934252;29;20024;-73
2022/07/06 10:53:38;;;;;;;82.00;30.92;;;24.00;46.40;;;;;;4934160;29;20040;-73
2022/07/06 10:56:06;;;;;;;95.68;35.70;;;24.10;46.30;;;;;;4932880;29;20040;-73
2022/07/06 10:58:45;;;;;;;72.93;25.50;;;24.00;46.90;;;;;;4932968;29;20552;-73
2022/07/06 11:01:12;;;;;;;48.85;16.25;;;24.00;46.80;;;;;;4934075;29;20580;-73
2022/07/06 11:04:05;;;;;;;43.20;15.35;;;24.00;46.70;;;;;;4934069;29;20031;-73
2022/07/06 11:06:39;;;;;;;33.45;10.57;;;24.00;46.40;;;;;;4931017;29;20039;-73
2022/07/06 11:09:10;;;;;;;30.80;9.15;;;24.00;45.60;;;;;;4933806;29;20027;-74
2022/07/06 11:11:36;;;;;;;35.83;10.65;;;23.90;45.60;;;;;;4934089;29;20114;-73
2022/07/06 11:14:17;;;;;;;23.65;6.63;;;23.90;45.10;;;;;;4916876;29;20147;-74
2022/07/06 11:16:46;;;;;;;22.52;7.07;;;23.90;45.10;;;;;;4916881;29;20063;-74
2022/07/06 11:19:15;;;;;;;17.70;6.18;;;23.90;44.90;;;;;;4933903;29;20039;-74
2022/07/06 11:22:08;;;;;;;20.40;6.10;;;23.80;45.20;;;;;;4933915;29;20642;-74
2022/07/06 11:24:37;;;;;;;11.90;4.13;;;23.80;44.60;;;;;;4922227;29;20043;-74
2022/07/06 11:27:03;;;;;;;15.52;4.03;;;23.80;44.40;;;;;;4933714;29;20366;-74
2022/07/06 11:29:30;;;;;;;16.50;4.53;;;23.80;44.80;;;;;;4933656;29;20142;-74
2022/07/06 11:32:00;;;;;;;15.30;3.50;;;23.80;44.70;;;;;;4936171;29;20036;-74
2022/07/06 11:34:28;;;;;;;11.82;3.30;;;23.80;44.80;;;;;;4920083;29;20432;-73
2022/07/06 11:36:59;;;;;;;6.70;2.10;;;23.80;44.80;;;;;;4936950;29;20435;-73
2022/07/06 11:39:29;;;;;;;9.30;2.63;;;23.80;44.50;;;;;;4937117;29;20440;-73
2022/07/06 11:41:56;;;;;;;10.48;2.40;;;23.80;44.80;;;;;;4937470;29;20111;-73
2022/07/06 11:44:22;;;;;;;7.07;2.17;;;23.80;45.30;;;;;;4935995;29;20551;-74
2022/07/06 11:46:49;;;;;;;8.93;2.38;;;23.80;44.60;;;;;;4936540;29;20027;-74
2022/07/06 11:49:15;;;;;;;5.03;1.80;;;23.80;44.50;;;;;;4937037;29;20031;-73
2022/07/06 11:51:42;;;;;;;8.02;1.90;;;23.80;44.20;;;;;;4935918;29;20031;-74
2022/07/06 11:54:12;;;;;;;3.95;1.55;;;23.80;43.80;;;;;;4937077;29;20041;-73
2022/07/06 11:56:46;;;;;;;9.10;1.75;;;23.80;44.30;;;;;;4919881;29;20040;-73
2022/07/06 11:59:12;;;;;;;5.85;1.70;;;23.80;44.20;;;;;;4919829;29;20400;-73
2022/07/06 12:01:43;;;;;;;4.30;1.60;;;23.90;44.30;;;;;;4936941;29;20031;-73
2022/07/06 12:04:10;;;;;;;5.72;1.75;;;23.90;44.30;;;;;;4935829;29;20392;-74
2022/07/06 12:06:36;;;;;;;4.18;1.38;;;23.90;43.90;;;;;;4935339;29;20026;-74
2022/07/06 12:09:04;;;;;;;11.00;1.50;;;23.90;44.30;;;;;;4936627;29;20032;-74
2022/07/06 12:11:32;;;;;;;4.70;1.20;;;23.90;44.30;;;;;;4919696;29;20032;-74
2022/07/06 12:14:00;;;;;;;6.63;1.33;;;23.90;44.20;;;;;;4935409;29;20131;-74
2022/07/06 12:16:36;;;;;;;3.85;1.15;;;23.90;44.30;;;;;;4919295;29;20024;-74
2022/07/06 12:19:05;;;;;;;4.05;1.20;;;23.80;44.30;;;;;;4936530;29;20035;-74
2022/07/06 12:21:33;;;;;;;2.75;1.10;;;23.80;44.10;;;;;;4919507;29;20135;-74
2022/07/06 12:23:59;;;;;;;10.77;1.40;;;23.80;43.90;;;;;;4935269;29;20034;-74
2022/07/06 12:26:29;;;;;;;6.07;1.30;;;23.80;44.00;;;;;;4936077;29;20036;-76
2022/07/06 12:29:05;;;;;;;12.73;2.53;;;23.80;43.70;;;;;;4947056;23;20051;-74
2022/07/06 12:31:39;;;;;;;16.58;3.33;;;23.80;43.60;;;;;;4918699;29;20055;-75
2022/07/06 12:34:16;;;;;;;11.45;4.30;;;23.80;43.70;;;;;;4935484;29;20028;-74
2022/07/06 12:36:50;;;;;;;7.95;3.05;;;23.80;44.00;;;;;;4934822;29;20035;-76
2022/07/06 12:39:18;;;;;;;7.25;3.25;;;23.80;43.50;;;;;;4935943;29;20028;-75
2022/07/06 12:41:52;;;;;;;12.85;2.55;;;23.80;43.70;;;;;;4935800;29;20031;-75
2022/07/06 12:44:23;;;;;;;5.57;2.20;;;23.80;44.10;;;;;;4936082;29;20031;-74
2022/07/06 12:46:50;;;;;;;8.75;2.72;;;23.80;43.50;;;;;;4916339;29;20110;-74
2022/07/06 12:49:25;;;;;;;9.52;2.72;;;23.80;44.00;;;;;;4932713;29;20435;-74
2022/07/06 12:52:28;;;;;;;6.50;2.80;;;23.90;43.80;;;;;;4935769;29;20047;-74
2022/07/06 12:54:53;;;;;;;6.93;1.95;;;24.00;44.00;;;;;;4917903;28;20075;-74